createdAt,value
2019-05-14T21:48:14.212Z,65.42
2019-05-14T21:51:18.069Z,65.94
2019-05-14T21:54:20.518Z,63.39
2019-05-14T21:57:22.561Z,61.61
2019-05-14T22:00:30.048Z,60.23
2019-05-14T22:03:33.842Z,59.65
2019-05-14T22:06:37.832Z,59.07
2019-05-14T22:09:41.305Z,58.73
2019-05-14T22:12:43.763Z,58.30
2019-05-14T22:15:45.852Z,58.19
2019-05-14T22:18:48.353Z,58.09
2019-05-14T22:21:51.075Z,57.83
2019-05-14T22:24:53.096Z,57.74
2019-05-14T22:28:10.746Z,57.61
2019-05-14T22:31:00.221Z,57.50
2019-05-14T22:34:02.262Z,57.55
2019-05-14T22:37:04.245Z,57.66
2019-05-14T22:40:07.087Z,57.70
2019-05-14T22:43:09.509Z,57.78
2019-05-14T22:46:11.771Z,57.83
2019-05-14T22:49:13.745Z,57.94
2019-05-14T22:52:15.872Z,57.93
2019-05-14T22:55:17.871Z,57.98
2019-05-14T22:58:25.547Z,57.97
2019-05-14T23:01:23.914Z,58.02
2019-05-14T23:04:25.894Z,57.91
2019-05-14T23:07:27.891Z,57.82
2019-05-14T23:10:29.868Z,57.82
2019-05-14T23:13:32.644Z,57.86
2019-05-14T23:16:39.312Z,57.90
2019-05-14T23:19:38.638Z,57.95
2019-05-14T23:22:40.648Z,58.12
2019-05-14T23:25:42.689Z,58.28
2019-05-14T23:28:45.977Z,58.25
2019-05-14T23:31:49.011Z,58.19
2019-05-14T23:34:51.373Z,58.19
2019-05-14T23:37:53.497Z,58.25
2019-05-14T23:40:58.785Z,58.23
2019-05-14T23:44:02.720Z,58.14
2019-05-14T23:47:04.772Z,58.14
2019-05-14T23:50:08.197Z,58.09
2019-05-14T23:53:10.741Z,57.91
2019-05-14T23:56:12.745Z,57.97
2019-05-14T23:59:14.792Z,58.01
